createdAt,value
2022-10-16T00:01:12.517Z,1.45
2022-10-16T00:03:39.927Z,1.60
2022-10-16T00:06:06.623Z,1.10
2022-10-16T00:08:33.352Z,1.35
2022-10-16T00:11:01.615Z,2.03
2022-10-16T00:13:28.192Z,2.22
2022-10-16T00:15:57.444Z,1.20
2022-10-16T00:18:24.984Z,1.20
2022-10-16T00:20:51.978Z,9.02
2022-10-16T00:23:18.690Z,2.25
2022-10-16T00:25:45.284Z,1.77
2022-10-16T00:28:11.960Z,4.93
2022-10-16T00:30:39.500Z,4.40
2022-10-16T00:33:06.093Z,4.25
2022-10-16T00:35:32.679Z,1.15
2022-10-16T00:37:59.303Z,1.55
2022-10-16T00:40:25.874Z,3.45
2022-10-16T00:42:52.435Z,2.42
2022-10-16T00:45:19.008Z,5.63
2022-10-16T00:47:46.933Z,1.15
2022-10-16T00:50:30.156Z,3.90
2022-10-16T00:52:57.093Z,1.35
2022-10-16T00:55:23.932Z,4.53
2022-10-16T00:57:51.893Z,2.30
2022-10-16T01:00:22.561Z,3.63
2022-10-16T01:03:00.639Z,2.45
2022-10-16T01:05:43.871Z,1.20
2022-10-16T01:08:20.108Z,2.17
2022-10-16T01:10:54.419Z,1.70
2022-10-16T01:13:30.113Z,3.65
2022-10-16T01:16:07.570Z,2.65
2022-10-16T01:18:46.327Z,1.70
2022-10-16T01:21:17.643Z,1.30
2022-10-16T01:23:53.155Z,1.08
2022-10-16T01:26:46.643Z,1.73
2022-10-16T01:29:22.109Z,3.05
2022-10-16T01:31:52.286Z,2.70
2022-10-16T01:34:40.285Z,2.30
2022-10-16T01:37:13.409Z,3.72
2022-10-16T01:39:40.746Z,1.40
2022-10-16T01:42:24.252Z,1.67
2022-10-16T01:44:51.588Z,1.73
2022-10-16T01:47:18.325Z,1.95
2022-10-16T01:49:45.123Z,1.30
2022-10-16T01:52:14.440Z,1.50
2022-10-16T01:54:42.465Z,1.10
2022-10-16T01:57:09.038Z,1.48
2022-10-16T01:59:38.213Z,1.73
2022-10-16T02:02:09.134Z,1.88
2022-10-16T02:04:43.935Z,2.20
2022-10-16T02:07:10.524Z,2.50
2022-10-16T02:09:37.134Z,3.05
2022-10-16T02:12:20.890Z,4.13
2022-10-16T02:14:47.472Z,1.75
2022-10-16T02:17:16.681Z,2.45
2022-10-16T02:19:43.722Z,3.20
2022-10-16T02:22:13.788Z,2.97
2022-10-16T02:25:02.895Z,2.55
2022-10-16T02:27:51.268Z,4.05
2022-10-16T02:30:27.161Z,5.15
2022-10-16T02:32:53.773Z,6.63
2022-10-16T02:35:21.524Z,3.33
2022-10-16T02:37:49.108Z,4.53
2022-10-16T02:40:16.034Z,3.63
2022-10-16T02:42:42.955Z,2.35
2022-10-16T02:45:10.874Z,3.10
2022-10-16T02:47:37.645Z,3.25
2022-10-16T02:50:04.585Z,3.25
2022-10-16T02:52:31.167Z,4.57
2022-10-16T02:54:57.741Z,3.78
2022-10-16T02:57:24.561Z,3.38
2022-10-16T02:59:51.370Z,2.88
2022-10-16T03:02:18.152Z,2.63
2022-10-16T03:04:44.865Z,3.05
2022-10-16T03:07:11.506Z,3.10
2022-10-16T03:09:38.089Z,3.13
2022-10-16T03:12:04.796Z,2.53
2022-10-16T03:14:31.382Z,1.90
2022-10-16T03:16:57.938Z,1.85
2022-10-16T03:19:25.465Z,1.73
2022-10-16T03:21:52.123Z,2.22
2022-10-16T03:24:18.697Z,3.70
2022-10-16T03:26:45.264Z,2.53
2022-10-16T03:29:11.842Z,1.55
2022-10-16T03:31:38.416Z,3.53
2022-10-16T03:34:05.010Z,3.17
2022-10-16T03:36:31.915Z,2.72
2022-10-16T03:38:58.493Z,2.88
2022-10-16T03:41:25.110Z,1.85
2022-10-16T03:43:51.692Z,4.82
2022-10-16T03:46:18.263Z,1.38
2022-10-16T03:48:44.850Z,3.97
2022-10-16T03:51:11.416Z,1.30
2022-10-16T03:53:37.993Z,4.78
2022-10-16T03:56:04.656Z,3.50
2022-10-16T03:58:31.286Z,4.45
2022-10-16T04:00:57.863Z,2.45
2022-10-16T04:03:24.552Z,1.80
2022-10-16T04:05:51.518Z,1.45
2022-10-16T04:08:18.165Z,5.05
2022-10-16T04:10:44.959Z,3.50
2022-10-16T04:13:12.161Z,4.25
2022-10-16T04:15:38.974Z,4.32
2022-10-16T04:18:06.000Z,10.82
2022-10-16T04:20:33.067Z,4.22
2022-10-16T04:22:59.632Z,4.63
2022-10-16T04:25:26.246Z,2.75
2022-10-16T04:27:55.954Z,1.55
2022-10-16T04:30:23.210Z,1.85
2022-10-16T04:32:53.171Z,1.80
2022-10-16T04:35:20.601Z,3.45
2022-10-16T04:37:47.211Z,2.88
2022-10-16T04:40:14.351Z,2.63
2022-10-16T04:42:41.773Z,2.85
2022-10-16T04:45:12.011Z,1.98
2022-10-16T04:50:08.170Z,4.78
2022-10-16T04:55:06.738Z,3.97
2022-10-16T04:57:34.383Z,3.58
2022-10-16T05:00:01.162Z,2.38
2022-10-16T05:02:27.817Z,2.88
2022-10-16T05:04:54.500Z,4.57
2022-10-16T05:07:21.090Z,1.83
2022-10-16T05:09:47.693Z,1.58
2022-10-16T05:12:14.322Z,7.28
2022-10-16T05:14:40.947Z,2.70
2022-10-16T05:17:07.536Z,4.70
2022-10-16T05:19:34.186Z,2.72
2022-10-16T05:22:00.790Z,2.42
2022-10-16T05:24:27.441Z,2.80
2022-10-16T05:26:54.050Z,5.65
2022-10-16T05:29:20.654Z,6.82
2022-10-16T05:31:47.236Z,2.67
2022-10-16T05:34:13.829Z,1.45
2022-10-16T05:36:40.428Z,5.20
2022-10-16T05:39:07.042Z,1.83
2022-10-16T05:41:33.629Z,3.70
2022-10-16T05:44:00.218Z,2.78
2022-10-16T05:46:26.765Z,1.90
2022-10-16T05:48:54.376Z,1.92
2022-10-16T05:51:20.988Z,5.57
2022-10-16T05:53:47.862Z,3.05
2022-10-16T05:56:14.530Z,6.25
2022-10-16T05:58:45.348Z,3.22
2022-10-16T06:01:14.399Z,3.75
2022-10-16T06:03:41.298Z,1.65
2022-10-16T06:06:37.554Z,2.88
2022-10-16T06:09:04.323Z,3.53
2022-10-16T06:11:32.801Z,3.95
2022-10-16T06:14:02.773Z,2.40
2022-10-16T06:16:29.583Z,3.75
2022-10-16T06:18:57.001Z,6.90
2022-10-16T06:21:28.100Z,4.85
2022-10-16T06:23:55.684Z,4.07
2022-10-16T06:26:23.885Z,7.60
2022-10-16T06:28:50.622Z,1.83
2022-10-16T06:31:17.938Z,2.20
2022-10-16T06:33:44.758Z,2.92
2022-10-16T06:36:13.919Z,3.92
2022-10-16T06:38:40.970Z,5.25
2022-10-16T06:41:07.995Z,2.38
2022-10-16T06:43:36.351Z,3.20
2022-10-16T06:46:03.614Z,1.55
2022-10-16T06:48:30.369Z,6.50
2022-10-16T06:50:58.252Z,2.38
2022-10-16T06:53:25.447Z,2.90
2022-10-16T06:55:52.189Z,3.65
2022-10-16T06:58:18.910Z,3.10
2022-10-16T07:00:45.502Z,1.85
2022-10-16T07:03:12.081Z,1.80
2022-10-16T07:05:42.494Z,2.25
2022-10-16T07:08:09.624Z,2.75
2022-10-16T07:10:36.363Z,4.50
2022-10-16T07:13:02.982Z,4.80
2022-10-16T07:15:29.682Z,5.30
2022-10-16T07:17:56.291Z,2.22
2022-10-16T07:20:22.934Z,2.13
2022-10-16T07:22:49.524Z,2.78
2022-10-16T07:25:16.088Z,30.75
2022-10-16T07:27:42.731Z,3.47
2022-10-16T07:30:09.737Z,2.85
2022-10-16T07:32:36.306Z,1.60
2022-10-16T07:35:03.046Z,3.58
2022-10-16T07:37:29.791Z,3.00
2022-10-16T07:39:56.500Z,1.58
2022-10-16T07:42:23.051Z,2.13
2022-10-16T07:44:49.660Z,3.17
2022-10-16T07:47:16.302Z,1.52
2022-10-16T07:49:42.900Z,2.15
2022-10-16T07:52:09.531Z,2.75
2022-10-16T07:54:36.121Z,4.43
2022-10-16T07:57:02.750Z,4.97
2022-10-16T07:59:29.346Z,1.85
2022-10-16T08:01:55.903Z,3.03
2022-10-16T08:04:22.526Z,3.55
2022-10-16T08:06:50.200Z,4.20
2022-10-16T08:09:16.868Z,2.40
2022-10-16T08:11:43.438Z,2.03
2022-10-16T08:14:10.022Z,2.25
2022-10-16T08:16:36.581Z,5.88
2022-10-16T08:19:03.663Z,2.67
2022-10-16T08:21:30.241Z,3.00
2022-10-16T08:23:58.402Z,6.15
2022-10-16T08:26:26.318Z,1.58
2022-10-16T08:28:53.271Z,2.90
2022-10-16T08:31:20.316Z,1.83
2022-10-16T08:33:48.184Z,3.97
2022-10-16T08:36:15.383Z,1.85
2022-10-16T08:38:42.050Z,2.38
2022-10-16T08:41:19.086Z,3.88
2022-10-16T08:44:05.013Z,6.00
2022-10-16T08:46:35.092Z,1.40
2022-10-16T08:49:01.676Z,5.30
2022-10-16T08:51:32.521Z,2.75
2022-10-16T08:54:19.906Z,3.40
2022-10-16T08:56:46.460Z,2.88
2022-10-16T08:59:21.203Z,2.75
2022-10-16T09:01:48.787Z,1.60
2022-10-16T09:04:39.938Z,2.53
2022-10-16T09:07:14.116Z,3.60
2022-10-16T09:10:02.451Z,1.48
2022-10-16T09:12:38.537Z,1.70
2022-10-16T09:15:15.682Z,2.42
2022-10-16T09:17:54.216Z,2.40
2022-10-16T09:20:23.745Z,2.42
2022-10-16T09:22:50.313Z,3.85
2022-10-16T09:25:19.272Z,4.40
2022-10-16T09:27:48.703Z,4.22
2022-10-16T09:30:17.753Z,1.42
2022-10-16T09:32:44.951Z,2.00
2022-10-16T09:35:37.402Z,1.52
2022-10-16T09:38:04.055Z,2.35
2022-10-16T09:40:38.667Z,3.17
2022-10-16T09:43:30.610Z,1.30
2022-10-16T09:45:58.380Z,0.80
2022-10-16T09:48:25.341Z,2.83
2022-10-16T09:51:02.171Z,3.05
2022-10-16T09:53:42.773Z,6.65
2022-10-16T09:56:13.344Z,3.90
2022-10-16T09:58:45.763Z,2.17
2022-10-16T10:01:14.468Z,2.72
2022-10-16T10:03:42.498Z,3.30
2022-10-16T10:06:28.470Z,2.42
2022-10-16T10:09:07.361Z,3.40
2022-10-16T10:11:56.337Z,1.55
2022-10-16T10:14:39.681Z,2.83
2022-10-16T10:17:06.176Z,7.22
2022-10-16T10:19:53.655Z,2.58
2022-10-16T10:22:41.874Z,1.27
2022-10-16T10:25:14.526Z,1.50
2022-10-16T10:30:19.041Z,5.30
2022-10-16T10:32:59.398Z,2.47
2022-10-16T10:35:48.817Z,4.95
2022-10-16T10:38:38.258Z,1.95
2022-10-16T10:41:17.236Z,2.90
2022-10-16T10:44:05.364Z,1.02
2022-10-16T10:46:52.652Z,2.63
2022-10-16T10:49:48.939Z,3.05
2022-10-16T10:53:00.764Z,3.50
2022-10-16T10:55:47.357Z,1.63
2022-10-16T10:58:49.037Z,2.78
2022-10-16T11:01:48.485Z,1.40
2022-10-16T11:04:59.525Z,3.70
2022-10-16T11:07:31.445Z,2.90
2022-10-16T11:10:10.621Z,1.63
2022-10-16T11:12:40.798Z,1.58
2022-10-16T11:15:36.750Z,6.00
2022-10-16T11:18:39.225Z,1.10
2022-10-16T11:21:08.428Z,9.23
2022-10-16T11:23:49.573Z,1.20
2022-10-16T11:26:26.525Z,2.83
2022-10-16T11:28:57.878Z,2.05
2022-10-16T11:31:42.793Z,1.52
2022-10-16T11:34:23.841Z,6.13
2022-10-16T11:36:52.236Z,2.53
2022-10-16T11:39:31.617Z,3.03
2022-10-16T11:42:04.150Z,1.98
2022-10-16T11:47:58.152Z,1.70
2022-10-16T11:50:40.002Z,2.05
2022-10-16T11:53:15.435Z,1.00
2022-10-16T11:55:46.166Z,1.55
2022-10-16T11:58:37.337Z,2.78
2022-10-16T12:01:28.401Z,1.17
2022-10-16T12:03:58.127Z,2.97
2022-10-16T12:06:43.307Z,2.40
2022-10-16T12:09:31.095Z,1.38
2022-10-16T12:11:57.808Z,3.63
2022-10-16T12:14:57.338Z,2.90
2022-10-16T12:17:37.022Z,3.95
2022-10-16T12:20:12.851Z,3.08
2022-10-16T12:22:55.130Z,4.00
2022-10-16T12:25:39.155Z,1.10
2022-10-16T12:28:29.053Z,3.88
2022-10-16T12:31:00.399Z,1.50
2022-10-16T12:33:41.425Z,1.27
2022-10-16T12:36:32.219Z,1.63
2022-10-16T12:38:58.942Z,1.20
2022-10-16T12:41:29.515Z,2.00
2022-10-16T12:43:56.306Z,2.05
2022-10-16T12:46:27.572Z,1.73
2022-10-16T12:49:09.222Z,3.92
2022-10-16T12:51:38.089Z,1.48
2022-10-16T12:54:16.225Z,1.55
2022-10-16T12:57:06.680Z,2.35
2022-10-16T12:59:57.795Z,2.42
2022-10-16T13:02:43.097Z,2.78
2022-10-16T13:05:15.753Z,1.35
2022-10-16T13:07:54.486Z,1.85
2022-10-16T13:10:28.250Z,1.80
2022-10-16T13:13:21.439Z,1.38
2022-10-16T13:15:47.959Z,3.28
2022-10-16T13:18:38.120Z,1.00
2022-10-16T13:21:13.681Z,3.25
2022-10-16T13:24:10.231Z,2.05
2022-10-16T13:26:43.064Z,1.83
2022-10-16T13:29:09.668Z,1.00
2022-10-16T13:31:38.727Z,1.33
2022-10-16T13:34:05.617Z,3.13
2022-10-16T13:36:56.692Z,3.17
2022-10-16T13:39:27.015Z,3.08
2022-10-16T13:42:06.446Z,0.95
2022-10-16T13:44:49.092Z,2.63
2022-10-16T13:47:20.660Z,2.13
2022-10-16T13:49:47.568Z,2.13
2022-10-16T13:52:22.126Z,4.82
2022-10-16T13:54:48.828Z,2.25
2022-10-16T13:57:26.821Z,3.50
2022-10-16T13:59:54.729Z,1.90
2022-10-16T14:02:31.793Z,2.55
2022-10-16T14:04:58.562Z,1.60
2022-10-16T14:07:29.627Z,3.53
2022-10-16T14:09:56.544Z,3.90
2022-10-16T14:12:27.100Z,2.38
2022-10-16T14:14:55.561Z,2.17
2022-10-16T14:17:33.719Z,2.75
2022-10-16T14:20:02.607Z,1.27
2022-10-16T14:25:20.069Z,1.38
2022-10-16T14:27:47.406Z,2.92
2022-10-16T14:30:15.752Z,1.35
2022-10-16T14:32:43.681Z,1.23
2022-10-16T14:35:33.694Z,1.50
2022-10-16T14:38:01.714Z,1.27
2022-10-16T14:40:33.810Z,1.75
2022-10-16T14:43:01.875Z,3.28
2022-10-16T14:45:30.922Z,2.58
2022-10-16T14:47:59.402Z,1.30
2022-10-16T14:50:26.044Z,3.83
2022-10-16T14:52:52.660Z,3.80
2022-10-16T14:55:19.455Z,2.03
2022-10-16T14:57:46.136Z,5.68
2022-10-16T15:00:23.793Z,2.75
2022-10-16T15:02:51.015Z,1.55
2022-10-16T15:05:27.369Z,1.65
2022-10-16T15:07:56.491Z,2.17
2022-10-16T15:10:24.590Z,4.13
2022-10-16T15:12:51.232Z,1.23
2022-10-16T15:15:23.964Z,2.65
2022-10-16T15:17:54.433Z,3.65
2022-10-16T15:20:21.151Z,3.00
2022-10-16T15:22:48.134Z,2.58
2022-10-16T15:25:45.730Z,4.43
2022-10-16T15:28:13.598Z,3.25
2022-10-16T15:30:40.611Z,1.55
2022-10-16T15:33:21.847Z,4.80
2022-10-16T15:35:49.276Z,2.85
2022-10-16T15:38:16.250Z,2.40
2022-10-16T15:40:42.828Z,1.73
2022-10-16T15:43:09.942Z,3.50
2022-10-16T15:45:36.578Z,5.75
2022-10-16T15:48:03.280Z,2.08
2022-10-16T15:50:30.135Z,6.80
2022-10-16T15:52:56.722Z,1.85
2022-10-16T15:55:23.286Z,4.70
2022-10-16T15:57:49.859Z,3.22
2022-10-16T16:00:18.838Z,2.70
2022-10-16T16:02:46.878Z,3.22
2022-10-16T16:05:13.504Z,1.58
2022-10-16T16:07:41.101Z,3.08
2022-10-16T16:10:09.408Z,1.95
2022-10-16T16:12:36.250Z,3.15
2022-10-16T16:15:05.597Z,1.40
2022-10-16T16:17:33.635Z,4.10
2022-10-16T16:20:00.287Z,4.13
2022-10-16T16:22:27.381Z,2.20
2022-10-16T16:24:54.235Z,3.65
2022-10-16T16:27:20.995Z,8.27
2022-10-16T16:29:48.016Z,1.92
2022-10-16T16:32:14.643Z,3.45
2022-10-16T16:34:41.221Z,3.22
2022-10-16T16:37:07.801Z,3.58
2022-10-16T16:39:34.456Z,2.33
2022-10-16T16:42:01.042Z,2.17
2022-10-16T16:44:27.684Z,2.15
2022-10-16T16:46:55.569Z,3.38
2022-10-16T16:49:22.415Z,3.55
2022-10-16T16:51:48.974Z,2.58
2022-10-16T16:54:15.683Z,6.55
2022-10-16T16:56:45.452Z,5.72
2022-10-16T16:59:17.854Z,2.30
2022-10-16T17:01:44.951Z,4.00
2022-10-16T17:04:11.581Z,6.45
2022-10-16T17:06:38.304Z,5.07
2022-10-16T17:09:06.077Z,4.65
2022-10-16T17:11:32.700Z,5.75
2022-10-16T17:14:00.265Z,8.68
2022-10-16T17:16:32.715Z,4.38
2022-10-16T17:19:04.206Z,3.85
2022-10-16T17:21:32.827Z,3.53
2022-10-16T17:23:59.756Z,5.22
2022-10-16T17:26:26.344Z,5.05
2022-10-16T17:28:54.492Z,6.75
2022-10-16T17:31:23.463Z,2.63
2022-10-16T17:33:51.634Z,4.60
2022-10-16T17:36:19.122Z,4.40
2022-10-16T17:38:45.814Z,3.05
2022-10-16T17:41:16.126Z,2.42
2022-10-16T17:43:43.253Z,3.75
2022-10-16T17:46:10.406Z,2.55
2022-10-16T17:48:38.940Z,5.35
2022-10-16T17:51:09.686Z,6.40
2022-10-16T17:53:36.661Z,3.40
2022-10-16T17:56:07.949Z,5.68
2022-10-16T17:58:34.842Z,4.13
2022-10-16T18:01:01.769Z,5.93
2022-10-16T18:03:29.021Z,3.63
2022-10-16T18:05:56.293Z,3.55
2022-10-16T18:08:26.414Z,6.25
2022-10-16T18:10:55.346Z,4.05
2022-10-16T18:13:22.067Z,4.85
2022-10-16T18:15:48.642Z,8.15
2022-10-16T18:18:15.291Z,6.53
2022-10-16T18:20:41.852Z,5.25
2022-10-16T18:23:08.442Z,2.90
2022-10-16T18:25:35.312Z,6.40
2022-10-16T18:28:01.910Z,5.72
2022-10-16T18:30:28.729Z,6.05
2022-10-16T18:32:55.293Z,10.57
2022-10-16T18:35:22.004Z,5.90
2022-10-16T18:37:48.590Z,4.88
2022-10-16T18:40:15.240Z,4.15
2022-10-16T18:42:41.828Z,7.35
2022-10-16T18:45:08.994Z,5.13
2022-10-16T18:47:35.559Z,6.85
2022-10-16T18:50:02.175Z,7.47
2022-10-16T18:52:28.766Z,4.22
2022-10-16T18:54:57.339Z,8.18
2022-10-16T18:57:23.986Z,4.55
2022-10-16T18:59:50.595Z,7.57
2022-10-16T19:02:17.198Z,8.30
2022-10-16T19:04:43.774Z,8.32
2022-10-16T19:07:11.219Z,6.70
2022-10-16T19:09:38.312Z,9.68
2022-10-16T19:12:05.219Z,5.88
2022-10-16T19:14:32.724Z,5.40
2022-10-16T19:16:59.621Z,4.78
2022-10-16T19:19:26.983Z,7.30
2022-10-16T19:22:01.395Z,7.90
2022-10-16T19:24:27.986Z,6.68
2022-10-16T19:26:54.675Z,4.95
2022-10-16T19:29:21.292Z,10.07
2022-10-16T19:31:48.002Z,3.80
2022-10-16T19:34:14.741Z,6.53
2022-10-16T19:36:41.409Z,5.60
2022-10-16T19:39:12.389Z,5.97
2022-10-16T19:41:39.270Z,6.97
2022-10-16T19:44:08.095Z,3.30
2022-10-16T19:46:35.136Z,3.25
2022-10-16T19:49:03.573Z,9.73
2022-10-16T19:51:30.737Z,4.10
2022-10-16T19:54:02.521Z,9.10
2022-10-16T19:56:30.208Z,6.10
2022-10-16T19:58:57.979Z,8.07
2022-10-16T20:01:26.348Z,4.82
2022-10-16T20:03:52.990Z,6.60
2022-10-16T20:06:20.120Z,3.67
2022-10-16T20:08:48.484Z,4.97
2022-10-16T20:11:16.878Z,4.18
2022-10-16T20:13:43.699Z,5.13
2022-10-16T20:16:11.959Z,5.80
2022-10-16T20:18:39.056Z,3.67
2022-10-16T20:21:13.687Z,6.05
2022-10-16T20:23:40.492Z,11.38
2022-10-16T20:26:07.449Z,3.38
2022-10-16T20:28:34.218Z,4.55
2022-10-16T20:31:06.767Z,10.43
2022-10-16T20:33:33.397Z,4.72
2022-10-16T20:35:59.950Z,6.65
2022-10-16T20:38:26.626Z,4.55
2022-10-16T20:40:53.207Z,5.65
2022-10-16T20:43:19.957Z,3.70
2022-10-16T20:45:46.659Z,4.63
2022-10-16T20:48:14.882Z,3.13
2022-10-16T20:50:41.821Z,8.23
2022-10-16T20:53:08.933Z,4.55
2022-10-16T20:55:36.863Z,3.28
2022-10-16T20:58:04.822Z,6.95
2022-10-16T21:00:31.692Z,4.95
2022-10-16T21:02:58.300Z,4.57
2022-10-16T21:05:28.735Z,6.68
2022-10-16T21:07:55.873Z,5.05
2022-10-16T21:10:23.046Z,7.70
2022-10-16T21:12:55.615Z,4.97
2022-10-16T21:15:22.457Z,7.35
2022-10-16T21:17:49.153Z,4.78
2022-10-16T21:20:15.910Z,5.10
2022-10-16T21:22:42.485Z,6.93
2022-10-16T21:25:09.240Z,6.68
2022-10-16T21:27:40.179Z,4.00
2022-10-16T21:30:08.345Z,4.22
2022-10-16T21:32:36.240Z,4.65
2022-10-16T21:35:02.870Z,5.65
2022-10-16T21:37:29.710Z,5.57
2022-10-16T21:39:56.405Z,6.15
2022-10-16T21:42:23.126Z,6.57
2022-10-16T21:44:49.701Z,3.67
2022-10-16T21:47:16.252Z,6.53
2022-10-16T21:49:42.873Z,8.88
2022-10-16T21:52:09.529Z,4.40
2022-10-16T21:54:36.119Z,4.28
2022-10-16T21:59:34.226Z,4.05
2022-10-16T22:02:03.120Z,6.30
2022-10-16T22:04:29.758Z,7.18
2022-10-16T22:06:56.350Z,4.85
2022-10-16T22:09:22.953Z,3.92
2022-10-16T22:11:50.572Z,8.82
2022-10-16T22:14:18.797Z,9.27
2022-10-16T22:16:45.541Z,11.07
2022-10-16T22:19:13.614Z,21.25
2022-10-16T22:21:40.879Z,19.25
2022-10-16T22:24:08.084Z,23.60
2022-10-16T22:26:35.409Z,29.90
2022-10-16T22:29:02.165Z,20.77
2022-10-16T22:31:28.757Z,25.63
2022-10-16T22:33:59.864Z,18.60
2022-10-16T22:36:27.034Z,18.67
2022-10-16T22:38:53.673Z,26.10
2022-10-16T22:41:20.587Z,30.13
2022-10-16T22:43:48.720Z,39.30
2022-10-16T22:46:20.646Z,35.78
2022-10-16T22:48:47.246Z,40.63
2022-10-16T22:51:16.755Z,28.77
2022-10-16T22:53:44.748Z,21.25
2022-10-16T22:56:11.812Z,19.45
2022-10-16T22:58:38.518Z,19.85
2022-10-16T23:01:16.216Z,16.23
2022-10-16T23:03:42.832Z,14.70
2022-10-16T23:06:09.439Z,17.75
2022-10-16T23:08:36.022Z,14.45
2022-10-16T23:11:08.637Z,13.52
2022-10-16T23:13:39.136Z,14.20
2022-10-16T23:16:06.996Z,21.13
2022-10-16T23:18:37.352Z,12.55
2022-10-16T23:21:12.235Z,13.05
2022-10-16T23:23:39.735Z,13.00
2022-10-16T23:26:11.456Z,16.08
2022-10-16T23:28:38.479Z,10.63
2022-10-16T23:31:05.857Z,15.82
2022-10-16T23:33:33.592Z,11.70
2022-10-16T23:36:00.175Z,13.65
2022-10-16T23:38:26.774Z,13.40
2022-10-16T23:40:53.335Z,10.13
2022-10-16T23:43:19.909Z,10.05
2022-10-16T23:45:46.503Z,11.88
2022-10-16T23:48:13.119Z,8.98
2022-10-16T23:50:39.713Z,10.43
2022-10-16T23:53:09.425Z,13.18
2022-10-16T23:55:36.833Z,18.60
2022-10-16T23:58:03.531Z,13.30
